FIA6532 LBSF-LUKK
Flight info
| Callsign | FIA6532 |
|---|---|
| Flight time | 1h 0m |
| Altitude | 29000 |
| Route | GOL4S/09 GOL Q24 SOMOV DCT BCU DCT BUSES |
| Aircraft | A321/M-SDFGIJ1RWY/LB1 |
Departure
| Time | 2026-05-04 17:50 |
|---|---|
| Airport | Sofia Airport (LBSF) |
Arrival
| Time | 2026-05-04 18:51 |
|---|---|
| Airport | Chişinău International Airport (LUKK) |
| Time | Latitude | Longitude | Altitude | Speed | Heading |
|---|---|---|---|---|---|
| 2026-05-04 17:26 | 42.68999 | 23.40686 | 1744 ft | 0 kts | 196° |
| 2026-05-04 17:44 | 42.68990 | 23.40682 | 1742 ft | 6 kts | 196° |
| 2026-05-04 17:44 | 42.68960 | 23.40633 | 1748 ft | 7 kts | 266° |
| 2026-05-04 17:44 | 42.68973 | 23.40558 | 1749 ft | 11 kts | 286° |
| 2026-05-04 17:45 | 42.69000 | 23.40434 | 1749 ft | 16 kts | 287° |
| 2026-05-04 17:45 | 42.69032 | 23.40289 | 1749 ft | 16 kts | 286° |
| 2026-05-04 17:45 | 42.69062 | 23.40151 | 1746 ft | 15 kts | 287° |
| 2026-05-04 17:45 | 42.69092 | 23.40010 | 1741 ft | 15 kts | 283° |
| 2026-05-04 17:46 | 42.69110 | 23.39875 | 1745 ft | 14 kts | 284° |
| 2026-05-04 17:46 | 42.69137 | 23.39752 | 1741 ft | 13 kts | 287° |
| 2026-05-04 17:46 | 42.69164 | 23.39631 | 1745 ft | 13 kts | 287° |
| 2026-05-04 17:46 | 42.69185 | 23.39560 | 1744 ft | 10 kts | 304° |
| 2026-05-04 17:47 | 42.69258 | 23.39546 | 1748 ft | 12 kts | 4° |
| 2026-05-04 17:47 | 42.69335 | 23.39554 | 1748 ft | 11 kts | 5° |
| 2026-05-04 17:47 | 42.69428 | 23.39566 | 1743 ft | 10 kts | 5° |
| 2026-05-04 17:47 | 42.69471 | 23.39571 | 1746 ft | 9 kts | 5° |
| 2026-05-04 17:48 | 42.69529 | 23.39578 | 1748 ft | 8 kts | 5° |
| 2026-05-04 17:48 | 42.69578 | 23.39583 | 1745 ft | 6 kts | 5° |
| 2026-05-04 17:48 | 42.69618 | 23.39588 | 1746 ft | 5 kts | 5° |
| 2026-05-04 17:48 | 42.69668 | 23.39594 | 1748 ft | 11 kts | 5° |
| 2026-05-04 17:49 | 42.69762 | 23.39611 | 1743 ft | 12 kts | 26° |
| 2026-05-04 17:49 | 42.69767 | 23.39691 | 1742 ft | 14 kts | 92° |
| 2026-05-04 17:49 | 42.69753 | 23.39983 | 1750 ft | 60 kts | 94° |
| 2026-05-04 17:49 | 42.69700 | 23.40851 | 1746 ft | 120 kts | 95° |
| 2026-05-04 17:50 | 42.69618 | 23.42202 | 1746 ft | 164 kts | 95° |
| 2026-05-04 17:50 | 42.69519 | 23.43853 | 2095 ft | 173 kts | 95° |
| 2026-05-04 17:50 | 42.69413 | 23.45450 | 2771 ft | 169 kts | 95° |
| 2026-05-04 17:50 | 42.69304 | 23.47084 | 3181 ft | 180 kts | 95° |
| 2026-05-04 17:51 | 42.69185 | 23.48874 | 3370 ft | 203 kts | 94° |
| 2026-05-04 17:51 | 42.69053 | 23.50890 | 3563 ft | 226 kts | 94° |
| 2026-05-04 17:51 | 42.68906 | 23.53140 | 3853 ft | 251 kts | 94° |
| 2026-05-04 17:51 | 42.68833 | 23.55587 | 4394 ft | 264 kts | 82° |
| 2026-05-04 17:52 | 42.69423 | 23.57941 | 5177 ft | 265 kts | 55° |
| 2026-05-04 17:52 | 42.70558 | 23.59876 | 6009 ft | 264 kts | 48° |
| 2026-05-04 17:52 | 42.71755 | 23.61770 | 6898 ft | 264 kts | 47° |
| 2026-05-04 17:52 | 42.72959 | 23.63659 | 7718 ft | 264 kts | 47° |
| 2026-05-04 17:53 | 42.74168 | 23.65554 | 8568 ft | 264 kts | 48° |
| 2026-05-04 17:53 | 42.75370 | 23.67449 | 9437 ft | 264 kts | 48° |
| 2026-05-04 17:53 | 42.76570 | 23.69351 | 10211 ft | 265 kts | 48° |
| 2026-05-04 17:53 | 42.77802 | 23.71301 | 10451 ft | 286 kts | 48° |
| 2026-05-04 17:54 | 42.79158 | 23.73447 | 10603 ft | 309 kts | 49° |
| 2026-05-04 17:54 | 42.80600 | 23.75731 | 10966 ft | 323 kts | 49° |
| 2026-05-04 17:54 | 42.82074 | 23.78072 | 11602 ft | 328 kts | 49° |
| 2026-05-04 17:54 | 42.83568 | 23.80448 | 12258 ft | 332 kts | 49° |
| 2026-05-04 17:55 | 42.85078 | 23.82856 | 12882 ft | 336 kts | 49° |
| 2026-05-04 17:55 | 42.86611 | 23.85300 | 13578 ft | 340 kts | 49° |
| 2026-05-04 17:55 | 42.88141 | 23.87743 | 14221 ft | 344 kts | 50° |
| 2026-05-04 17:55 | 42.89706 | 23.90242 | 14822 ft | 348 kts | 49° |
| 2026-05-04 17:56 | 42.91295 | 23.92779 | 15396 ft | 352 kts | 49° |
| 2026-05-04 17:56 | 42.92895 | 23.95338 | 15985 ft | 355 kts | 49° |
| 2026-05-04 17:56 | 42.94505 | 23.97920 | 16541 ft | 359 kts | 49° |
| 2026-05-04 17:56 | 42.96135 | 24.00537 | 17102 ft | 363 kts | 49° |
| 2026-05-04 17:57 | 42.97754 | 24.03135 | 17659 ft | 366 kts | 49° |
| 2026-05-04 17:57 | 42.99411 | 24.05794 | 18196 ft | 370 kts | 49° |
| 2026-05-04 17:57 | 43.01088 | 24.08487 | 18663 ft | 374 kts | 49° |
| 2026-05-04 17:57 | 43.02780 | 24.11206 | 19122 ft | 377 kts | 49° |
| 2026-05-04 17:58 | 43.04485 | 24.13949 | 19578 ft | 380 kts | 49° |
| 2026-05-04 17:58 | 43.06203 | 24.16719 | 20042 ft | 383 kts | 49° |
| 2026-05-04 17:58 | 43.07931 | 24.19506 | 20493 ft | 386 kts | 49° |
| 2026-05-04 17:58 | 43.09764 | 24.22205 | 20942 ft | 388 kts | 41° |
| 2026-05-04 17:59 | 43.11883 | 24.24512 | 21391 ft | 391 kts | 36° |
| 2026-05-04 17:59 | 43.14072 | 24.26754 | 21847 ft | 394 kts | 36° |
| 2026-05-04 17:59 | 43.18488 | 24.31296 | 22709 ft | 400 kts | 36° |
| 2026-05-04 18:00 | 43.20722 | 24.33603 | 23141 ft | 403 kts | 36° |
| 2026-05-04 18:00 | 43.22967 | 24.35923 | 23579 ft | 406 kts | 36° |
| 2026-05-04 18:00 | 43.25232 | 24.38263 | 23938 ft | 409 kts | 36° |
| 2026-05-04 18:00 | 43.27514 | 24.40622 | 24283 ft | 412 kts | 36° |
| 2026-05-04 18:01 | 43.29807 | 24.42994 | 24635 ft | 415 kts | 36° |
| 2026-05-04 18:01 | 43.32123 | 24.45392 | 24975 ft | 418 kts | 36° |
| 2026-05-04 18:01 | 43.34447 | 24.47803 | 25304 ft | 421 kts | 36° |
| 2026-05-04 18:02 | 43.39163 | 24.52699 | 25971 ft | 426 kts | 36° |
| 2026-05-04 18:02 | 43.41536 | 24.55164 | 26285 ft | 429 kts | 36° |
| 2026-05-04 18:02 | 43.43932 | 24.57658 | 26602 ft | 432 kts | 36° |
| 2026-05-04 18:02 | 43.46312 | 24.60140 | 26899 ft | 435 kts | 36° |
| 2026-05-04 18:03 | 43.48738 | 24.62676 | 27214 ft | 438 kts | 36° |
| 2026-05-04 18:03 | 43.51178 | 24.65230 | 27526 ft | 441 kts | 37° |
| 2026-05-04 18:03 | 43.53632 | 24.67801 | 27830 ft | 443 kts | 36° |
| 2026-05-04 18:03 | 43.56070 | 24.70352 | 28107 ft | 446 kts | 36° |
| 2026-05-04 18:04 | 43.58558 | 24.72956 | 28390 ft | 449 kts | 36° |
| 2026-05-04 18:04 | 43.61056 | 24.75572 | 28670 ft | 452 kts | 36° |
| 2026-05-04 18:04 | 43.66134 | 24.80911 | 28969 ft | 463 kts | 37° |
| 2026-05-04 18:05 | 43.68693 | 24.83597 | 29057 ft | 468 kts | 35° |
| 2026-05-04 18:05 | 43.74412 | 24.87920 | 29066 ft | 470 kts | 25° |
| 2026-05-04 18:06 | 43.83243 | 24.93812 | 29054 ft | 471 kts | 25° |
| 2026-05-04 18:06 | 43.89157 | 24.97774 | 29056 ft | 471 kts | 25° |
| 2026-05-04 18:07 | 43.95068 | 25.01745 | 29047 ft | 471 kts | 25° |
| 2026-05-04 18:07 | 44.00944 | 25.05695 | 29039 ft | 471 kts | 25° |
| 2026-05-04 18:08 | 44.06865 | 25.09684 | 29035 ft | 471 kts | 25° |
| 2026-05-04 18:08 | 44.12739 | 25.13660 | 29027 ft | 471 kts | 25° |
| 2026-05-04 18:09 | 44.24575 | 25.21666 | 29021 ft | 472 kts | 25° |
| 2026-05-04 18:10 | 44.30447 | 25.25655 | 29023 ft | 471 kts | 25° |
| 2026-05-04 18:10 | 44.36348 | 25.29680 | 29024 ft | 471 kts | 25° |
| 2026-05-04 18:11 | 44.42240 | 25.33711 | 29021 ft | 471 kts | 25° |
| 2026-05-04 18:11 | 44.48137 | 25.37744 | 29025 ft | 471 kts | 25° |
| 2026-05-04 18:12 | 44.53998 | 25.41762 | 29021 ft | 471 kts | 25° |
| 2026-05-04 18:12 | 44.59873 | 25.45817 | 29018 ft | 470 kts | 25° |
| 2026-05-04 18:13 | 44.65729 | 25.49854 | 29017 ft | 470 kts | 25° |
| 2026-05-04 18:14 | 44.74533 | 25.55933 | 29024 ft | 471 kts | 25° |
| 2026-05-04 18:14 | 44.80421 | 25.60006 | 29021 ft | 471 kts | 25° |
| 2026-05-04 18:15 | 44.92151 | 25.68171 | 29041 ft | 471 kts | 25° |
| 2026-05-04 18:16 | 44.98034 | 25.72272 | 29049 ft | 471 kts | 25° |
| 2026-05-04 18:16 | 45.03905 | 25.76373 | 29053 ft | 472 kts | 25° |
| 2026-05-04 18:17 | 45.12739 | 25.82583 | 29054 ft | 473 kts | 25° |
| 2026-05-04 18:18 | 45.21594 | 25.88814 | 29057 ft | 473 kts | 25° |
| 2026-05-04 18:18 | 45.27461 | 25.92954 | 29066 ft | 474 kts | 25° |
| 2026-05-04 18:19 | 45.36334 | 25.99235 | 29071 ft | 475 kts | 25° |
| 2026-05-04 18:19 | 45.42245 | 26.03435 | 29066 ft | 475 kts | 25° |
| 2026-05-04 18:20 | 45.48139 | 26.07627 | 29069 ft | 475 kts | 25° |
| 2026-05-04 18:20 | 45.54064 | 26.11866 | 29078 ft | 476 kts | 24° |
| 2026-05-04 18:21 | 45.59974 | 26.16093 | 29076 ft | 476 kts | 24° |
| 2026-05-04 18:21 | 45.65915 | 26.20345 | 29075 ft | 477 kts | 24° |
| 2026-05-04 18:22 | 45.71829 | 26.24592 | 29081 ft | 477 kts | 24° |
| 2026-05-04 18:22 | 45.77752 | 26.28857 | 29082 ft | 477 kts | 24° |
| 2026-05-04 18:23 | 45.83688 | 26.33145 | 29080 ft | 477 kts | 24° |
| 2026-05-04 18:23 | 45.89630 | 26.37445 | 29077 ft | 478 kts | 24° |
| 2026-05-04 18:24 | 45.95540 | 26.41730 | 29073 ft | 478 kts | 24° |
| 2026-05-04 18:24 | 46.01501 | 26.46056 | 29069 ft | 478 kts | 24° |
| 2026-05-04 18:25 | 46.07334 | 26.50518 | 29059 ft | 480 kts | 33° |
| 2026-05-04 18:25 | 46.09828 | 26.53736 | 29059 ft | 483 kts | 48° |
| 2026-05-04 18:25 | 46.11932 | 26.57517 | 29055 ft | 484 kts | 50° |
| 2026-05-04 18:26 | 46.16017 | 26.65074 | 28875 ft | 477 kts | 50° |
| 2026-05-04 18:26 | 46.18025 | 26.68820 | 28455 ft | 467 kts | 51° |
| 2026-05-04 18:26 | 46.19983 | 26.72478 | 28178 ft | 455 kts | 50° |
| 2026-05-04 18:27 | 46.21893 | 26.76040 | 27894 ft | 443 kts | 50° |
| 2026-05-04 18:27 | 46.23746 | 26.79489 | 27617 ft | 432 kts | 50° |
| 2026-05-04 18:27 | 46.25572 | 26.82886 | 27376 ft | 421 kts | 50° |
| 2026-05-04 18:27 | 46.27355 | 26.86208 | 27139 ft | 410 kts | 51° |
| 2026-05-04 18:28 | 46.29083 | 26.89431 | 26802 ft | 402 kts | 50° |
| 2026-05-04 18:28 | 46.30767 | 26.92575 | 26522 ft | 389 kts | 51° |
| 2026-05-04 18:28 | 46.32402 | 26.95630 | 26042 ft | 379 kts | 51° |
| 2026-05-04 18:28 | 46.33990 | 26.98605 | 25550 ft | 373 kts | 51° |
| 2026-05-04 18:29 | 46.35570 | 27.01569 | 25075 ft | 367 kts | 51° |
| 2026-05-04 18:29 | 46.37107 | 27.04455 | 24603 ft | 362 kts | 51° |
| 2026-05-04 18:29 | 46.38633 | 27.07321 | 24126 ft | 356 kts | 51° |
| 2026-05-04 18:29 | 46.40137 | 27.10146 | 23683 ft | 351 kts | 51° |
| 2026-05-04 18:30 | 46.43072 | 27.15663 | 22588 ft | 343 kts | 51° |
| 2026-05-04 18:30 | 46.44535 | 27.18418 | 22041 ft | 342 kts | 51° |
| 2026-05-04 18:30 | 46.45979 | 27.21146 | 21652 ft | 338 kts | 51° |
| 2026-05-04 18:31 | 46.47406 | 27.23846 | 21273 ft | 335 kts | 51° |
| 2026-05-04 18:31 | 46.48819 | 27.26523 | 20897 ft | 333 kts | 51° |
| 2026-05-04 18:31 | 46.49749 | 27.28283 | 20660 ft | 331 kts | 51° |
| 2026-05-04 18:31 | 46.51146 | 27.30928 | 20273 ft | 329 kts | 51° |
| 2026-05-04 18:32 | 46.52534 | 27.33561 | 19893 ft | 327 kts | 51° |
| 2026-05-04 18:32 | 46.53899 | 27.36151 | 19624 ft | 318 kts | 51° |
| 2026-05-04 18:32 | 46.55227 | 27.38675 | 19190 ft | 313 kts | 51° |
| 2026-05-04 18:32 | 46.56544 | 27.41178 | 18774 ft | 311 kts | 51° |
| 2026-05-04 18:33 | 46.57853 | 27.43673 | 18387 ft | 309 kts | 51° |
| 2026-05-04 18:33 | 46.59155 | 27.46155 | 17980 ft | 307 kts | 52° |
| 2026-05-04 18:33 | 46.60444 | 27.48611 | 17606 ft | 304 kts | 51° |
| 2026-05-04 18:33 | 46.61720 | 27.51045 | 17224 ft | 301 kts | 52° |
| 2026-05-04 18:34 | 46.62984 | 27.53460 | 16854 ft | 299 kts | 52° |
| 2026-05-04 18:34 | 46.64225 | 27.55829 | 16495 ft | 296 kts | 51° |
| 2026-05-04 18:34 | 46.65474 | 27.58212 | 16125 ft | 294 kts | 51° |
| 2026-05-04 18:34 | 46.66710 | 27.60575 | 15758 ft | 291 kts | 52° |
| 2026-05-04 18:35 | 46.67938 | 27.62928 | 15396 ft | 290 kts | 52° |
| 2026-05-04 18:35 | 46.69142 | 27.65236 | 15046 ft | 288 kts | 51° |
| 2026-05-04 18:35 | 46.70351 | 27.67556 | 14690 ft | 286 kts | 51° |
| 2026-05-04 18:35 | 46.71548 | 27.69856 | 14330 ft | 284 kts | 51° |
| 2026-05-04 18:36 | 46.72737 | 27.72146 | 13976 ft | 282 kts | 52° |
| 2026-05-04 18:36 | 46.73917 | 27.74422 | 13696 ft | 278 kts | 51° |
| 2026-05-04 18:36 | 46.75060 | 27.76627 | 13535 ft | 268 kts | 51° |
| 2026-05-04 18:36 | 46.76180 | 27.78786 | 13241 ft | 264 kts | 51° |
| 2026-05-04 18:37 | 46.77274 | 27.80895 | 12896 ft | 262 kts | 51° |
| 2026-05-04 18:37 | 46.78373 | 27.83016 | 12556 ft | 260 kts | 51° |
| 2026-05-04 18:37 | 46.79461 | 27.85114 | 12202 ft | 258 kts | 51° |
| 2026-05-04 18:37 | 46.80543 | 27.87197 | 11822 ft | 257 kts | 50° |
| 2026-05-04 18:38 | 46.81621 | 27.89278 | 11481 ft | 256 kts | 50° |
| 2026-05-04 18:38 | 46.82689 | 27.91349 | 11142 ft | 254 kts | 50° |
| 2026-05-04 18:38 | 46.83723 | 27.93358 | 11019 ft | 245 kts | 50° |
| 2026-05-04 18:38 | 46.84745 | 27.95342 | 11030 ft | 244 kts | 50° |
| 2026-05-04 18:39 | 46.85771 | 27.97332 | 10921 ft | 246 kts | 50° |
| 2026-05-04 18:39 | 46.86821 | 27.99367 | 10506 ft | 248 kts | 50° |
| 2026-05-04 18:39 | 46.87801 | 28.01362 | 10319 ft | 243 kts | 57° |
| 2026-05-04 18:39 | 46.88304 | 28.03742 | 10099 ft | 250 kts | 78° |
| 2026-05-04 18:40 | 46.88468 | 28.06273 | 9906 ft | 250 kts | 78° |
| 2026-05-04 18:40 | 46.88621 | 28.08813 | 9753 ft | 251 kts | 79° |
| 2026-05-04 18:40 | 46.88770 | 28.11348 | 9427 ft | 248 kts | 79° |
| 2026-05-04 18:40 | 46.88916 | 28.13847 | 9115 ft | 244 kts | 79° |
| 2026-05-04 18:41 | 46.89059 | 28.16277 | 8806 ft | 241 kts | 79° |
| 2026-05-04 18:41 | 46.89205 | 28.18741 | 8551 ft | 244 kts | 79° |
| 2026-05-04 18:41 | 46.89351 | 28.21219 | 8291 ft | 244 kts | 79° |
| 2026-05-04 18:41 | 46.89495 | 28.23697 | 8033 ft | 243 kts | 79° |
| 2026-05-04 18:42 | 46.89634 | 28.26143 | 7794 ft | 242 kts | 79° |
| 2026-05-04 18:42 | 46.89775 | 28.28594 | 7544 ft | 241 kts | 79° |
| 2026-05-04 18:42 | 46.89917 | 28.31042 | 7254 ft | 240 kts | 80° |
| 2026-05-04 18:42 | 46.90056 | 28.33438 | 6967 ft | 238 kts | 80° |
| 2026-05-04 18:43 | 46.90196 | 28.35840 | 6674 ft | 236 kts | 80° |
| 2026-05-04 18:43 | 46.90333 | 28.38225 | 6375 ft | 235 kts | 80° |
| 2026-05-04 18:43 | 46.90471 | 28.40606 | 6073 ft | 235 kts | 81° |
| 2026-05-04 18:43 | 46.90609 | 28.42983 | 5757 ft | 235 kts | 81° |
| 2026-05-04 18:44 | 46.90744 | 28.45343 | 5509 ft | 230 kts | 82° |
| 2026-05-04 18:44 | 46.90832 | 28.46905 | 5394 ft | 226 kts | 82° |
| 2026-05-04 18:44 | 46.90998 | 28.49904 | 5255 ft | 217 kts | 82° |
| 2026-05-04 18:44 | 46.91115 | 28.52049 | 5093 ft | 207 kts | 82° |
| 2026-05-04 18:45 | 46.91231 | 28.54128 | 4944 ft | 204 kts | 82° |
| 2026-05-04 18:45 | 46.91346 | 28.56190 | 4795 ft | 203 kts | 82° |
| 2026-05-04 18:45 | 46.91462 | 28.58250 | 4647 ft | 203 kts | 83° |
| 2026-05-04 18:45 | 46.91577 | 28.60308 | 4480 ft | 203 kts | 83° |
| 2026-05-04 18:46 | 46.91711 | 28.62365 | 4302 ft | 203 kts | 82° |
| 2026-05-04 18:46 | 46.91828 | 28.64410 | 4053 ft | 201 kts | 83° |
| 2026-05-04 18:46 | 46.91938 | 28.66440 | 3776 ft | 196 kts | 82° |
| 2026-05-04 18:46 | 46.92139 | 28.68348 | 3438 ft | 183 kts | 81° |
| 2026-05-04 18:47 | 46.92248 | 28.70131 | 3181 ft | 169 kts | 84° |
| 2026-05-04 18:47 | 46.92306 | 28.71790 | 2962 ft | 159 kts | 86° |
| 2026-05-04 18:47 | 46.92350 | 28.73375 | 2760 ft | 154 kts | 86° |
| 2026-05-04 18:47 | 46.92387 | 28.74926 | 2552 ft | 152 kts | 86° |
| 2026-05-04 18:48 | 46.92423 | 28.76464 | 2364 ft | 149 kts | 87° |
| 2026-05-04 18:48 | 46.92456 | 28.77931 | 2163 ft | 142 kts | 87° |
| 2026-05-04 18:48 | 46.92487 | 28.79359 | 1977 ft | 139 kts | 87° |
| 2026-05-04 18:48 | 46.92518 | 28.80766 | 1794 ft | 138 kts | 87° |
| 2026-05-04 18:49 | 46.92549 | 28.82174 | 1607 ft | 138 kts | 88° |
| 2026-05-04 18:49 | 46.92579 | 28.83576 | 1424 ft | 138 kts | 88° |
| 2026-05-04 18:49 | 46.92609 | 28.84988 | 1233 ft | 140 kts | 88° |
| 2026-05-04 18:49 | 46.92639 | 28.86423 | 1040 ft | 142 kts | 89° |
| 2026-05-04 18:50 | 46.92672 | 28.87875 | 849 ft | 143 kts | 89° |
| 2026-05-04 18:50 | 46.92701 | 28.89338 | 655 ft | 144 kts | 89° |
| 2026-05-04 18:50 | 46.92733 | 28.90802 | 464 ft | 144 kts | 89° |
| 2026-05-04 18:50 | 46.92756 | 28.92149 | 379 ft | 110 kts | 89° |
| 2026-05-04 18:51 | 46.92779 | 28.93000 | 362 ft | 59 kts | 88° |
| 2026-05-04 18:51 | 46.92788 | 28.93347 | 344 ft | 12 kts | 78° |
| 2026-05-04 18:51 | 46.92842 | 28.93407 | 347 ft | 11 kts | 9° |
| 2026-05-04 18:51 | 46.92917 | 28.93412 | 339 ft | 9 kts | 357° |
| 2026-05-04 18:52 | 46.92988 | 28.93410 | 337 ft | 11 kts | 3° |
| 2026-05-04 18:52 | 46.93058 | 28.93422 | 336 ft | 8 kts | 7° |
| 2026-05-04 18:52 | 46.93105 | 28.93431 | 337 ft | 5 kts | 7° |
| 2026-05-04 18:52 | 46.93142 | 28.93426 | 334 ft | 9 kts | 331° |
| 2026-05-04 18:53 | 46.93165 | 28.93300 | 337 ft | 16 kts | 277° |
| 2026-05-04 18:53 | 46.93177 | 28.93156 | 343 ft | 13 kts | 276° |
| 2026-05-04 18:53 | 46.93188 | 28.93016 | 346 ft | 16 kts | 276° |
| 2026-05-04 18:53 | 46.93200 | 28.92860 | 357 ft | 14 kts | 277° |
| 2026-05-04 18:54 | 46.93216 | 28.92735 | 357 ft | 9 kts | 303° |
| 2026-05-04 18:54 | 46.93266 | 28.92727 | 359 ft | 8 kts | 7° |
| 2026-05-04 18:54 | 46.93322 | 28.92737 | 356 ft | 9 kts | 7° |
| 2026-05-04 18:54 | 46.93385 | 28.92748 | 356 ft | 10 kts | 7° |
| 2026-05-04 18:55 | 46.93454 | 28.92764 | 359 ft | 9 kts | 11° |
| 2026-05-04 18:55 | 46.93457 | 28.92866 | 353 ft | 4 kts | 196° |
| 2026-05-04 18:55 | 46.93437 | 28.92862 | 350 ft | 2 kts | 186° |
| 2026-05-04 18:56 | 46.93429 | 28.92861 | 350 ft | 0 kts | 187° |